^^
Station Historical Data
Daily Summary for February 16, 2017 Units:  English    Metric   Both
« Previous Day
Next Day »
Daily Weekly Monthly Yearly Custom
  High: Low: Average:
Temperature: 35.7 °F 27.5 °F 31.7 °F
Dew Point: 19.8 °F 14.8 °F 17 °F
Humidity: 62 % 47 % 55 %
Wind Speed: 17.6 mph 2.7 mph 9.1 mph
Wind Gust: 27.6 mph - -
Wind:- - WNW
Pressure: 29.88 in 29.57 in -
Precipitation: 0.00 in    
Historical Graphs
 
 
Tabular Data for February 16, 2017
Time Temperature Dew Point Pressure Wind Wind Speed Wind Gust Humidity Rainfall Rate (Hourly) solar Conditions
00:03 33.1 °F 18.7 °F 29.57 in West 9.8 mph 17.3 mph 55 % 0.00 in 0.0 W/m2 CLR
00:08 33.1 °F 18.7 °F 29.57 in West 9.1 mph 18.4 mph 55 % 0.00 in 0.0 W/m2 CLR
00:13 33.0 °F 18.6 °F 29.58 in WNW 9.9 mph 17.3 mph 55 % 0.00 in 0.0 W/m2 CLR
00:18 33.0 °F 18.6 °F 29.58 in WNW 13.5 mph 19.6 mph 55 % 0.00 in 0.0 W/m2 CLR
00:23 33.0 °F 19.0 °F 29.58 in NNW 11.7 mph 24.0 mph 56 % 0.00 in 0.0 W/m2 CLR
00:28 32.9 °F 18.9 °F 29.58 in WNW 10.0 mph 18.4 mph 56 % 0.00 in 0.0 W/m2 CLR
00:33 32.9 °F 19.3 °F 29.58 in WNW 14.2 mph 18.4 mph 57 % 0.00 in 0.0 W/m2 CLR
00:38 32.9 °F 19.3 °F 29.58 in NW 4.1 mph 8.1 mph 57 % 0.00 in 0.0 W/m2 CLR
00:43 32.9 °F 19.3 °F 29.58 in WNW 12.8 mph 18.4 mph 57 % 0.00 in 0.0 W/m2 CLR
00:48 32.8 °F 19.2 °F 29.58 in WNW 3.8 mph 9.2 mph 57 % 0.00 in 0.0 W/m2 CLR
00:53 32.7 °F 19.1 °F 29.58 in NW 13.1 mph 26.5 mph 57 % 0.00 in 0.0 W/m2 CLR
00:58 32.7 °F 19.1 °F 29.58 in WNW 12.7 mph 21.9 mph 57 % 0.00 in 0.0 W/m2 CLR
01:03 32.7 °F 19.1 °F 29.58 in WNW 7.8 mph 15.0 mph 57 % 0.00 in 0.0 W/m2 CLR
01:08 32.7 °F 19.5 °F 29.58 in West 4.6 mph 10.4 mph 58 % 0.00 in 0.0 W/m2 CLR
01:13 32.6 °F 19.4 °F 29.58 in West 9.1 mph 14.0 mph 58 % 0.00 in 0.0 W/m2 CLR
01:18 32.6 °F 19.4 °F 29.58 in West 10.3 mph 17.0 mph 58 % 0.00 in 0.0 W/m2 CLR
01:23 32.5 °F 18.9 °F 29.58 in WNW 11.7 mph 15.0 mph 57 % 0.00 in 0.0 W/m2 CLR
01:28 32.6 °F 19.0 °F 29.58 in West 8.5 mph 13.8 mph 57 % 0.00 in 0.0 W/m2 CLR
01:33 32.5 °F 18.9 °F 29.58 in West 12.3 mph 19.6 mph 57 % 0.00 in 0.0 W/m2 CLR
01:38 32.4 °F 18.8 °F 29.58 in NNW 9.3 mph 18.4 mph 57 % 0.00 in 0.0 W/m2 CLR
01:43 32.4 °F 19.3 °F 29.58 in WNW 6.9 mph 15.0 mph 58 % 0.00 in 0.0 W/m2 CLR
01:48 32.3 °F 19.2 °F 29.58 in WNW 9.0 mph 16.1 mph 58 % 0.00 in 0.0 W/m2 CLR
01:53 32.3 °F 19.2 °F 29.58 in NW 7.4 mph 16.1 mph 58 % 0.00 in 0.0 W/m2 CLR
01:58 32.3 °F 19.6 °F 29.58 in WNW 6.2 mph 11.5 mph 59 % 0.00 in 0.0 W/m2 CLR
02:03 32.2 °F 19.5 °F 29.58 in NW 9.5 mph 17.3 mph 59 % 0.00 in 0.0 W/m2 CLR
02:08 32.1 °F 19.8 °F 29.58 in West 6.6 mph 10.0 mph 60 % 0.00 in 0.0 W/m2 CLR
02:13 32.2 °F 19.5 °F 29.58 in NW 9.0 mph 13.8 mph 59 % 0.00 in 0.0 W/m2 CLR
02:18 32.0 °F 19.3 °F 29.58 in NW 6.4 mph 9.2 mph 59 % 0.00 in 0.0 W/m2 CLR
02:23 32.0 °F 18.9 °F 29.58 in NW 9.1 mph 13.0 mph 58 % 0.00 in 0.0 W/m2 CLR
02:28 32.0 °F 19.3 °F 29.58 in NW 7.7 mph 15.0 mph 59 % 0.00 in 0.0 W/m2 CLR
02:33 31.9 °F 18.8 °F 29.58 in WNW 10.4 mph 15.0 mph 58 % 0.00 in 0.0 W/m2 CLR
02:38 31.8 °F 18.7 °F 29.58 in WNW 10.1 mph 17.0 mph 58 % 0.00 in 0.0 W/m2 CLR
02:43 31.8 °F 18.7 °F 29.58 in NW 5.3 mph 12.7 mph 58 % 0.00 in 0.0 W/m2 CLR
02:48 31.7 °F 18.6 °F 29.58 in WNW 13.0 mph 19.6 mph 58 % 0.00 in 0.0 W/m2 CLR
02:58 31.4 °F 17.9 °F 29.58 in NW 8.2 mph 15.0 mph 57 % 0.00 in 0.0 W/m2 CLR
03:03 31.3 °F 17.8 °F 29.58 in WNW 6.9 mph 15.0 mph 57 % 0.00 in 0.0 W/m2 CLR
03:08 31.2 °F 18.1 °F 29.58 in NW 8.7 mph 13.0 mph 58 % 0.00 in 0.0 W/m2 CLR
03:13 31.1 °F 18.0 °F 29.58 in NW 8.8 mph 13.8 mph 58 % 0.00 in 0.0 W/m2 CLR
03:18 31.0 °F 17.9 °F 29.58 in NW 4.0 mph 11.5 mph 58 % 0.00 in 0.0 W/m2 CLR
03:23 30.8 °F 17.7 °F 29.58 in WNW 5.0 mph 11.5 mph 58 % 0.00 in 0.0 W/m2 CLR
03:28 30.6 °F 17.6 °F 29.58 in West 4.4 mph 11.5 mph 58 % 0.00 in 0.0 W/m2 CLR
03:33 30.4 °F 17.0 °F 29.58 in West 8.5 mph 13.8 mph 57 % 0.00 in 0.0 W/m2 CLR
03:38 30.2 °F 16.8 °F 29.58 in WSW 9.1 mph 12.7 mph 57 % 0.00 in 0.0 W/m2 CLR
03:43 30.0 °F 16.6 °F 29.58 in WSW 6.0 mph 10.4 mph 57 % 0.00 in 0.0 W/m2 CLR
03:49 29.9 °F 16.9 °F 29.59 in West 5.9 mph 9.2 mph 58 % 0.00 in 0.0 W/m2 CLR
03:54 29.8 °F 16.8 °F 29.58 in WNW 3.2 mph 6.9 mph 58 % 0.00 in 0.0 W/m2 CLR
03:59 29.7 °F 16.7 °F 29.59 in NW 6.4 mph 11.5 mph 58 % 0.00 in 0.0 W/m2 CLR
04:04 29.7 °F 16.7 °F 29.59 in NW 6.9 mph 15.0 mph 58 % 0.00 in 0.0 W/m2 CLR
04:09 29.7 °F 16.3 °F 29.59 in NW 7.2 mph 13.8 mph 57 % 0.00 in 0.0 W/m2 CLR
04:14 29.6 °F 16.2 °F 29.59 in WNW 5.9 mph 9.2 mph 57 % 0.00 in 0.0 W/m2 CLR
04:19 29.6 °F 16.2 °F 29.59 in WNW 5.5 mph 10.0 mph 57 % 0.00 in 0.0 W/m2 CLR
04:24 29.5 °F 16.1 °F 29.59 in WNW 8.4 mph 13.8 mph 57 % 0.00 in 0.0 W/m2 CLR
04:29 29.5 °F 16.1 °F 29.59 in WNW 6.3 mph 10.4 mph 57 % 0.00 in 0.0 W/m2 CLR
04:34 29.5 °F 16.5 °F 29.60 in WNW 9.0 mph 13.8 mph 58 % 0.00 in 0.0 W/m2 CLR
04:39 29.5 °F 16.5 °F 29.59 in WNW 5.9 mph 10.4 mph 58 % 0.00 in 0.0 W/m2 CLR
04:44 29.5 °F 16.5 °F 29.60 in WNW 5.9 mph 9.2 mph 58 % 0.00 in 0.0 W/m2 CLR
04:49 29.5 °F 16.9 °F 29.60 in WNW 4.0 mph 6.9 mph 59 % 0.00 in 0.0 W/m2 CLR
04:54 29.4 °F 16.8 °F 29.60 in WNW 6.5 mph 12.7 mph 59 % 0.00 in 0.0 W/m2 CLR
04:59 29.5 °F 17.3 °F 29.60 in WNW 6.2 mph 10.4 mph 60 % 0.00 in 0.0 W/m2 CLR
05:04 29.6 °F 17.8 °F 29.60 in West 4.0 mph 6.9 mph 61 % 0.00 in 0.0 W/m2 CLR
05:09 29.7 °F 17.9 °F 29.60 in WNW 7.0 mph 11.5 mph 61 % 0.00 in 0.0 W/m2 CLR
05:14 29.7 °F 17.9 °F 29.60 in WNW 8.3 mph 11.5 mph 61 % 0.00 in 0.0 W/m2 CLR
05:19 29.8 °F 18.0 °F 29.60 in NW 5.7 mph 10.4 mph 61 % 0.00 in 0.0 W/m2 CLR
05:24 29.9 °F 18.1 °F 29.60 in WNW 6.7 mph 11.5 mph 61 % 0.00 in 0.0 W/m2 CLR
05:29 29.9 °F 18.1 °F 29.60 in WSW 7.7 mph 11.5 mph 61 % 0.00 in 0.0 W/m2 CLR
05:34 29.9 °F 18.1 °F 29.60 in WNW 7.9 mph 12.7 mph 61 % 0.00 in 0.0 W/m2 CLR
05:39 30.0 °F 17.8 °F 29.60 in WNW 7.4 mph 16.1 mph 60 % 0.00 in 0.0 W/m2 CLR
05:44 30.0 °F 18.2 °F 29.60 in West 10.7 mph 13.8 mph 61 % 0.00 in 0.0 W/m2 CLR
05:49 30.0 °F 18.2 °F 29.61 in WNW 7.8 mph 19.6 mph 61 % 0.00 in 0.0 W/m2 CLR
05:54 30.0 °F 18.2 °F 29.61 in WNW 10.1 mph 17.3 mph 61 % 0.00 in 0.0 W/m2 CLR
05:59 29.9 °F 18.1 °F 29.61 in WNW 10.0 mph 13.8 mph 61 % 0.00 in 0.0 W/m2 CLR
06:04 29.8 °F 18.0 °F 29.61 in WSW 6.1 mph 6.1 mph 61 % 0.00 in 0.0 W/m2 CLR
06:09 29.6 °F 18.2 °F 29.61 in West 9.7 mph 17.3 mph 62 % 0.00 in 0.0 W/m2 CLR
06:14 29.6 °F 18.2 °F 29.61 in WNW 5.7 mph 11.5 mph 62 % 0.00 in 0.0 W/m2 CLR
06:19 29.5 °F 18.1 °F 29.61 in WNW 5.6 mph 9.2 mph 62 % 0.00 in 0.0 W/m2 CLR
06:24 29.5 °F 18.1 °F 29.62 in West 12.5 mph 15.0 mph 62 % 0.00 in 0.0 W/m2 CLR
06:29 29.5 °F 18.1 °F 29.62 in NW 9.7 mph 9.7 mph 62 % 0.00 in 0.0 W/m2 CLR
06:35 29.5 °F 17.7 °F 29.62 in West 10.1 mph 10.1 mph 61 % 0.00 in 0.0 W/m2 CLR
06:40 29.6 °F 17.8 °F 29.63 in NW 12.2 mph 17.3 mph 61 % 0.00 in 0.0 W/m2 CLR
06:45 29.6 °F 17.4 °F 29.63 in WNW 12.1 mph 18.0 mph 60 % 0.00 in 0.0 W/m2 CLR
06:50 29.7 °F 17.5 °F 29.63 in NW 9.0 mph 20.0 mph 60 % 0.00 in 0.0 W/m2 OVC
06:55 29.6 °F 17.4 °F 29.63 in West 8.7 mph 15.0 mph 60 % 0.00 in 0.0 W/m2 CLR
07:00 29.6 °F 17.0 °F 29.64 in West 6.7 mph 15.0 mph 59 % 0.00 in 5.0 W/m2 CLR
07:05 29.7 °F 17.1 °F 29.64 in WNW 6.0 mph 16.0 mph 59 % 0.00 in 9.0 W/m2 OVC
07:10 29.7 °F 17.1 °F 29.64 in NW 7.8 mph 13.0 mph 59 % 0.00 in 14.0 W/m2 CLR
07:15 29.7 °F 17.1 °F 29.64 in WNW 7.6 mph 11.5 mph 59 % 0.00 in 21.0 W/m2 CLR
07:20 29.7 °F 17.1 °F 29.64 in West 6.0 mph 11.5 mph 59 % 0.00 in 30.0 W/m2 CLR
07:25 29.8 °F 16.8 °F 29.64 in WNW 12.7 mph 15.0 mph 58 % 0.00 in 28.0 W/m2 CLR
07:30 29.7 °F 16.7 °F 29.65 in NW 10.6 mph 17.3 mph 58 % 0.00 in 37.0 W/m2 CLR
07:35 29.8 °F 16.8 °F 29.65 in WNW 12.1 mph 17.3 mph 58 % 0.00 in 44.0 W/m2 CLR
07:40 29.8 °F 16.4 °F 29.65 in NW 6.4 mph 13.8 mph 57 % 0.00 in 42.0 W/m2 FEW
07:45 29.9 °F 16.5 °F 29.65 in NW 8.1 mph 13.8 mph 57 % 0.00 in 39.0 W/m2 SCT
07:50 30.1 °F 16.3 °F 29.65 in NW 5.3 mph 12.0 mph 56 % 0.00 in 40.0 W/m2 SCT
07:55 30.1 °F 16.3 °F 29.65 in NW 9.3 mph 17.3 mph 56 % 0.00 in 60.0 W/m2 SCT
08:00 30.3 °F 16.5 °F 29.65 in NNW 10.2 mph 19.6 mph 56 % 0.00 in 97.0 W/m2 CLR
08:05 30.5 °F 16.7 °F 29.66 in NW 9.4 mph 23.0 mph 56 % 0.00 in 111.0 W/m2 FEW
08:10 30.7 °F 16.4 °F 29.66 in NW 10.8 mph 16.1 mph 55 % 0.00 in 104.0 W/m2 CLR
08:15 31.0 °F 16.7 °F 29.66 in WNW 11.1 mph 16.1 mph 55 % 0.00 in 146.0 W/m2 CLR
08:20 31.0 °F 16.3 °F 29.66 in West 10.8 mph 16.1 mph 54 % 0.00 in 207.0 W/m2 CLR
08:25 31.0 °F 16.7 °F 29.67 in WNW 12.9 mph 16.1 mph 55 % 0.00 in 213.0 W/m2 CLR
08:30 31.3 °F 17.0 °F 29.66 in NW 9.2 mph 12.7 mph 55 % 0.00 in 227.0 W/m2 CLR
08:36 31.6 °F 17.3 °F 29.67 in WNW 7.5 mph 23.0 mph 55 % 0.00 in 250.0 W/m2 CLR
08:41 31.7 °F 16.5 °F 29.67 in NW 10.4 mph 15.0 mph 53 % 0.00 in 271.0 W/m2 CLR
08:46 31.8 °F 16.6 °F 29.67 in West 9.3 mph 12.7 mph 53 % 0.00 in 255.0 W/m2 CLR
08:51 32.1 °F 16.9 °F 29.67 in WNW 14.8 mph 18.0 mph 53 % 0.00 in 274.0 W/m2 CLR
08:56 32.1 °F 16.9 °F 29.67 in NW 7.8 mph 18.4 mph 53 % 0.00 in 255.0 W/m2 CLR
09:01 32.3 °F 17.1 °F 29.67 in NW 11.2 mph 19.0 mph 53 % 0.00 in 359.0 W/m2 CLR
09:06 32.5 °F 17.2 °F 29.67 in West 12.0 mph 12.7 mph 53 % 0.00 in 213.0 W/m2 CLR
09:11 32.4 °F 17.6 °F 29.67 in West 5.8 mph 11.5 mph 54 % 0.00 in 299.0 W/m2 CLR
09:16 32.4 °F 17.2 °F 29.67 in WNW 10.3 mph 15.0 mph 53 % 0.00 in 237.0 W/m2 FEW
09:21 32.2 °F 17.4 °F 29.67 in WNW 7.2 mph 12.7 mph 54 % 0.00 in 315.0 W/m2 CLR
09:26 32.5 °F 18.1 °F 29.67 in NW 7.6 mph 10.4 mph 55 % 0.00 in 473.0 W/m2 CLR
09:31 33.1 °F 18.2 °F 29.67 in NW 8.1 mph 12.7 mph 54 % 0.00 in 158.0 W/m2 BKN
09:37 33.1 °F 17.8 °F 29.67 in WNW 9.0 mph 13.8 mph 53 % 0.00 in 438.0 W/m2 SCT
09:41 32.6 °F 17.8 °F 29.67 in NW 14.0 mph 17.3 mph 54 % 0.00 in 490.0 W/m2 CLR
09:46 32.9 °F 17.2 °F 29.67 in West 12.5 mph 19.6 mph 52 % 0.00 in 504.0 W/m2 CLR
09:51 32.8 °F 17.5 °F 29.67 in WNW 10.9 mph 17.3 mph 53 % 0.00 in 548.0 W/m2 CLR
09:57 33.5 °F 17.7 °F 29.67 in WNW 7.3 mph 11.5 mph 52 % 0.00 in 503.0 W/m2 CLR
10:02 33.5 °F 17.3 °F 29.68 in West 10.5 mph 20.7 mph 51 % 0.00 in 608.0 W/m2 CLR
10:07 33.8 °F 17.6 °F 29.68 in NW 10.9 mph 14.0 mph 51 % 0.00 in 329.0 W/m2 CLR
10:12 34.2 °F 17.5 °F 29.68 in WNW 9.4 mph 13.8 mph 50 % 0.00 in 543.0 W/m2 CLR
10:17 34.0 °F 16.8 °F 29.68 in WNW 16.0 mph 26.5 mph 49 % 0.00 in 473.0 W/m2 CLR
10:22 34.0 °F 17.3 °F 29.68 in NW 12.9 mph 22.0 mph 50 % 0.00 in 591.0 W/m2 CLR
10:27 33.8 °F 16.6 °F 29.68 in NW 16.5 mph 23.0 mph 49 % 0.00 in 281.0 W/m2 SCT
10:32 33.6 °F 17.4 °F 29.68 in NW 15.2 mph 20.7 mph 51 % 0.00 in 615.0 W/m2 CLR
10:37 34.1 °F 16.9 °F 29.68 in NW 14.2 mph 24.2 mph 49 % 0.00 in 229.0 W/m2 BKN
10:42 33.2 °F 17.0 °F 29.68 in NW 9.5 mph 16.0 mph 51 % 0.00 in 251.0 W/m2 BKN
10:47 33.1 °F 16.9 °F 29.69 in NNW 8.9 mph 15.0 mph 51 % 0.00 in 214.0 W/m2 BKN
10:54 32.9 °F 16.3 °F 29.69 in West 9.4 mph 18.4 mph 50 % 0.00 in 265.0 W/m2 SCT
11:01 32.9 °F 16.3 °F 29.69 in NW 12.7 mph 19.6 mph 50 % 0.00 in 251.0 W/m2 SCT
11:06 33.1 °F 16.5 °F 29.69 in WNW 13.2 mph 21.0 mph 50 % 0.00 in 237.0 W/m2 BKN
11:11 33.3 °F 16.6 °F 29.69 in West 14.8 mph 20.7 mph 50 % 0.00 in 258.0 W/m2 SCT
11:16 33.2 °F 16.5 °F 29.69 in WNW 10.2 mph 17.3 mph 50 % 0.00 in 250.0 W/m2 SCT
11:21 33.3 °F 16.6 °F 29.69 in NW 11.1 mph 25.0 mph 50 % 0.00 in 218.0 W/m2 SCT
11:26 33.2 °F 16.5 °F 29.69 in WNW 9.9 mph 16.1 mph 50 % 0.00 in 290.0 W/m2 SCT
11:31 33.8 °F 16.6 °F 29.69 in NW 13.4 mph 23.0 mph 49 % 0.00 in 262.0 W/m2 SCT
11:36 33.8 °F 16.6 °F 29.69 in West 8.9 mph 16.0 mph 49 % 0.00 in 348.0 W/m2 FEW
11:41 33.8 °F 16.2 °F 29.69 in West 9.6 mph 12.7 mph 48 % 0.00 in 297.0 W/m2 SCT
11:46 33.8 °F 16.2 °F 29.69 in West 10.0 mph 19.6 mph 48 % 0.00 in 255.0 W/m2 SCT
11:51 33.6 °F 16.0 °F 29.68 in WNW 12.2 mph 21.9 mph 48 % 0.00 in 339.0 W/m2 SCT
11:56 33.9 °F 16.3 °F 29.68 in WNW 7.5 mph 19.6 mph 48 % 0.00 in 253.0 W/m2 BKN
12:01 34.1 °F 16.9 °F 29.68 in NW 12.4 mph 18.4 mph 49 % 0.00 in 274.0 W/m2 SCT
12:06 34.5 °F 17.3 °F 29.69 in NW 8.9 mph 13.8 mph 49 % 0.00 in 285.0 W/m2 SCT
12:11 34.4 °F 16.2 °F 29.68 in North 9.1 mph 15.0 mph 47 % 0.00 in 301.0 W/m2 SCT
12:17 34.3 °F 16.1 °F 29.68 in WNW 12.8 mph 19.6 mph 47 % 0.00 in 253.0 W/m2 SCT
12:22 33.9 °F 15.8 °F 29.69 in West 16.7 mph 16.7 mph 47 % 0.00 in 227.0 W/m2 BKN
12:27 33.9 °F 16.3 °F 29.68 in NW 10.8 mph 23.0 mph 48 % 0.00 in 258.0 W/m2 BKN
12:32 33.9 °F 16.3 °F 29.68 in WNW 10.3 mph 14.0 mph 48 % 0.00 in 174.0 W/m2 BKN
12:37 34.0 °F 16.8 °F 29.68 in WNW 7.0 mph 15.0 mph 49 % 0.00 in 158.0 W/m2 BKN
12:42 33.5 °F 17.3 °F 29.69 in WNW 8.9 mph 12.7 mph 51 % 0.00 in 158.0 W/m2 BKN
12:47 33.4 °F 17.6 °F 29.68 in West 9.4 mph 15.0 mph 52 % 0.00 in 188.0 W/m2 BKN
12:52 33.5 °F 18.2 °F 29.69 in NW 7.7 mph 12.7 mph 53 % 0.00 in 200.0 W/m2 BKN
12:57 33.2 °F 18.3 °F 29.69 in SW 14.3 mph 20.0 mph 54 % 0.00 in 190.0 W/m2 BKN
13:02 33.0 °F 18.6 °F 29.69 in WNW 10.6 mph 16.1 mph 55 % 0.00 in 308.0 W/m2 SCT
13:07 33.5 °F 19.0 °F 29.68 in WSW 16.9 mph 25.3 mph 55 % 0.00 in 329.0 W/m2 SCT
13:12 33.5 °F 18.2 °F 29.69 in West 13.5 mph 19.6 mph 53 % 0.00 in 425.0 W/m2 FEW
13:17 34.5 °F 19.1 °F 29.68 in WSW 13.0 mph 17.3 mph 53 % 0.00 in 401.0 W/m2 FEW
13:22 34.3 °F 18.0 °F 29.69 in West 14.5 mph 21.9 mph 51 % 0.00 in 367.0 W/m2 FEW
13:27 34.2 °F 18.4 °F 29.68 in WNW 13.5 mph 19.6 mph 52 % 0.00 in 418.0 W/m2 FEW
13:32 34.9 °F 18.6 °F 29.69 in WNW 12.3 mph 17.3 mph 51 % 0.00 in 390.0 W/m2 FEW
13:37 35.2 °F 17.9 °F 29.69 in West 11.8 mph 19.6 mph 49 % 0.00 in 265.0 W/m2 SCT
13:42 34.7 °F 17.9 °F 29.69 in WNW 7.4 mph 11.5 mph 50 % 0.00 in 260.0 W/m2 SCT
13:47 34.9 °F 17.7 °F 29.69 in West 13.3 mph 19.6 mph 49 % 0.00 in 288.0 W/m2 SCT
13:52 34.0 °F 17.3 °F 29.69 in West 12.1 mph 19.6 mph 50 % 0.00 in 232.0 W/m2 SCT
13:57 33.9 °F 17.7 °F 29.69 in WNW 9.7 mph 13.8 mph 51 % 0.00 in 265.0 W/m2 SCT
14:02 34.3 °F 18.0 °F 29.69 in WNW 10.5 mph 20.7 mph 51 % 0.00 in 192.0 W/m2 BKN
14:07 34.1 °F 17.4 °F 29.69 in NW 10.7 mph 17.3 mph 50 % 0.00 in 156.0 W/m2 BKN
14:12 34.1 °F 16.9 °F 29.70 in WNW 13.3 mph 19.6 mph 49 % 0.00 in 155.0 W/m2 BKN
14:17 33.9 °F 16.7 °F 29.69 in NW 14.1 mph 19.6 mph 49 % 0.00 in 151.0 W/m2 BKN
14:22 33.7 °F 16.5 °F 29.69 in NW 9.5 mph 18.4 mph 49 % 0.00 in 132.0 W/m2 BKN
14:27 34.0 °F 16.8 °F 29.70 in West 11.8 mph 17.3 mph 49 % 0.00 in 135.0 W/m2 BKN
14:32 33.8 °F 16.6 °F 29.70 in WNW 12.2 mph 15.0 mph 49 % 0.00 in 153.0 W/m2 BKN
14:37 33.9 °F 17.2 °F 29.70 in WNW 12.4 mph 18.4 mph 50 % 0.00 in 211.0 W/m2 BKN
14:42 34.0 °F 17.3 °F 29.70 in West 8.1 mph 15.0 mph 50 % 0.00 in 190.0 W/m2 SCT
14:47 34.6 °F 17.8 °F 29.70 in WNW 9.4 mph 10.4 mph 50 % 0.00 in 207.0 W/m2 SCT
14:53 34.7 °F 17.0 °F 29.70 in WNW 9.6 mph 24.2 mph 48 % 0.00 in 206.0 W/m2 SCT
14:58 34.6 °F 16.4 °F 29.70 in WNW 16.8 mph 19.6 mph 47 % 0.00 in 171.0 W/m2 SCT
15:03 34.3 °F 16.6 °F 29.71 in West 13.4 mph 21.9 mph 48 % 0.00 in 155.0 W/m2 BKN
15:08 34.3 °F 16.1 °F 29.71 in WNW 11.7 mph 19.6 mph 47 % 0.00 in 207.0 W/m2 BKN
15:13 34.7 °F 17.5 °F 29.71 in NW 6.8 mph 11.5 mph 49 % 0.00 in 195.0 W/m2 SCT
15:18 35.2 °F 17.4 °F 29.71 in WNW 12.4 mph 19.6 mph 48 % 0.00 in 165.0 W/m2 SCT
15:23 35.2 °F 17.0 °F 29.71 in West 12.7 mph 21.9 mph 47 % 0.00 in 167.0 W/m2 SCT
15:28 35.3 °F 17.1 °F 29.71 in NW 9.5 mph 16.1 mph 47 % 0.00 in 179.0 W/m2 SCT
15:33 35.7 °F 17.4 °F 29.71 in NW 15.1 mph 20.7 mph 47 % 0.00 in 151.0 W/m2 SCT
15:38 35.2 °F 17.0 °F 29.72 in West 5.2 mph 9.2 mph 47 % 0.00 in 113.0 W/m2 BKN
15:43 35.0 °F 16.8 °F 29.72 in NW 12.3 mph 16.1 mph 47 % 0.00 in 107.0 W/m2 BKN
15:48 34.7 °F 17.0 °F 29.72 in West 11.5 mph 20.7 mph 48 % 0.00 in 105.0 W/m2 BKN
15:53 34.7 °F 16.5 °F 29.72 in WNW 17.6 mph 27.6 mph 47 % 0.00 in 327.0 W/m2 CLR
15:58 34.8 °F 16.6 °F 29.72 in WNW 10.3 mph 18.4 mph 47 % 0.00 in 104.0 W/m2 FEW
16:03 34.6 °F 16.4 °F 29.72 in NW 12.1 mph 18.4 mph 47 % 0.00 in 109.0 W/m2 SCT
16:08 35.0 °F 16.8 °F 29.72 in NW 9.3 mph 17.3 mph 47 % 0.00 in 221.0 W/m2 CLR
16:13 34.8 °F 16.6 °F 29.72 in WNW 8.9 mph 16.1 mph 47 % 0.00 in 111.0 W/m2 SCT
16:18 34.9 °F 16.7 °F 29.73 in NW 5.0 mph 16.1 mph 47 % 0.00 in 206.0 W/m2 CLR
16:23 35.0 °F 16.8 °F 29.73 in WNW 13.8 mph 16.1 mph 47 % 0.00 in 90.0 W/m2 SCT
16:28 34.6 °F 16.9 °F 29.73 in WNW 9.8 mph 16.1 mph 48 % 0.00 in 91.0 W/m2 SCT
16:33 34.3 °F 16.6 °F 29.74 in WSW 8.2 mph 21.9 mph 48 % 0.00 in 70.0 W/m2 SCT
16:38 34.1 °F 15.9 °F 29.74 in NW 7.8 mph 21.9 mph 47 % 0.00 in 62.0 W/m2 CLR
16:43 34.0 °F 16.3 °F 29.74 in NNW 10.8 mph 20.7 mph 48 % 0.00 in 100.0 W/m2 CLR
16:48 34.1 °F 16.4 °F 29.74 in West 14.0 mph 14.0 mph 48 % 0.00 in 83.0 W/m2 CLR
16:53 34.1 °F 16.4 °F 29.75 in WNW 7.9 mph 16.0 mph 48 % 0.00 in 76.0 W/m2 CLR
16:58 34.0 °F 16.3 °F 29.75 in WNW 6.0 mph 9.2 mph 48 % 0.00 in 53.0 W/m2 FEW
17:03 33.6 °F 16.5 °F 29.75 in WNW 6.7 mph 12.0 mph 49 % 0.00 in 37.0 W/m2 FEW
17:08 33.4 °F 15.8 °F 29.76 in WNW 11.9 mph 18.4 mph 48 % 0.00 in 33.0 W/m2 FEW
17:13 33.2 °F 15.6 °F 29.76 in WNW 9.8 mph 21.0 mph 48 % 0.00 in 30.0 W/m2 FEW
17:18 32.9 °F 15.8 °F 29.76 in WNW 13.6 mph 20.7 mph 49 % 0.00 in 19.0 W/m2 FEW
17:23 32.7 °F 16.1 °F 29.77 in West 7.9 mph 13.8 mph 50 % 0.00 in 16.0 W/m2 FEW
17:29 32.7 °F 15.6 °F 29.77 in WNW 10.9 mph 15.0 mph 49 % 0.00 in 12.0 W/m2 CLR
17:33 32.7 °F 16.1 °F 29.77 in WNW 10.3 mph 13.8 mph 50 % 0.00 in 7.0 W/m2 CLR
17:38 32.6 °F 16.0 °F 29.77 in West 5.9 mph 13.8 mph 50 % 0.00 in 0.0 W/m2 CLR
17:43 32.5 °F 15.9 °F 29.78 in NW 11.0 mph 13.8 mph 50 % 0.00 in 0.0 W/m2 CLR
17:48 32.3 °F 16.2 °F 29.78 in WNW 7.7 mph 11.5 mph 51 % 0.00 in 0.0 W/m2 CLR
17:53 32.2 °F 16.1 °F 29.78 in WNW 7.3 mph 11.5 mph 51 % 0.00 in 0.0 W/m2 CLR
17:59 32.1 °F 16.4 °F 29.79 in NNW 11.9 mph 17.3 mph 52 % 0.00 in 0.0 W/m2 CLR
18:04 32.0 °F 16.3 °F 29.79 in WSW 12.5 mph 15.0 mph 52 % 0.00 in 0.0 W/m2 CLR
18:09 32.0 °F 16.3 °F 29.79 in West 5.6 mph 16.1 mph 52 % 0.00 in 0.0 W/m2 CLR
18:14 32.0 °F 16.3 °F 29.79 in WNW 8.3 mph 11.5 mph 52 % 0.00 in 0.0 W/m2 CLR
18:19 31.9 °F 16.2 °F 29.79 in West 8.2 mph 11.5 mph 52 % 0.00 in 0.0 W/m2 CLR
18:24 31.8 °F 16.6 °F 29.80 in West 6.2 mph 10.4 mph 53 % 0.00 in 0.0 W/m2 CLR
18:29 31.7 °F 16.5 °F 29.80 in WNW 7.8 mph 13.8 mph 53 % 0.00 in 0.0 W/m2 CLR
18:34 31.6 °F 16.4 °F 29.80 in WSW 7.1 mph 13.8 mph 53 % 0.00 in 0.0 W/m2 CLR
18:39 31.6 °F 16.4 °F 29.81 in WSW 13.7 mph 19.6 mph 53 % 0.00 in 0.0 W/m2 CLR
18:44 31.6 °F 16.4 °F 29.81 in WNW 9.8 mph 16.1 mph 53 % 0.00 in 0.0 W/m2 CLR
18:49 31.6 °F 16.4 °F 29.81 in WSW 6.6 mph 9.2 mph 53 % 0.00 in 0.0 W/m2 CLR
18:54 31.4 °F 16.7 °F 29.81 in WNW 2.9 mph 5.8 mph 54 % 0.00 in 0.0 W/m2 CLR
18:59 31.2 °F 16.9 °F 29.81 in West 3.0 mph 3.5 mph 55 % 0.00 in 0.0 W/m2 CLR
19:04 31.1 °F 16.8 °F 29.81 in WNW 9.4 mph 13.8 mph 55 % 0.00 in 0.0 W/m2 CLR
19:09 31.1 °F 16.8 °F 29.81 in WNW 9.2 mph 16.0 mph 55 % 0.00 in 0.0 W/m2 CLR
19:14 31.2 °F 16.9 °F 29.81 in WSW 9.3 mph 13.8 mph 55 % 0.00 in 0.0 W/m2 CLR
19:19 31.2 °F 16.9 °F 29.82 in West 9.9 mph 13.8 mph 55 % 0.00 in 0.0 W/m2 CLR
19:24 31.1 °F 16.8 °F 29.82 in West 9.3 mph 14.0 mph 55 % 0.00 in 0.0 W/m2 CLR
19:29 31.0 °F 16.7 °F 29.82 in West 11.5 mph 18.4 mph 55 % 0.00 in 0.0 W/m2 CLR
19:34 31.0 °F 16.7 °F 29.82 in WNW 10.3 mph 19.6 mph 55 % 0.00 in 0.0 W/m2 CLR
19:39 30.9 °F 16.6 °F 29.82 in WNW 9.3 mph 19.6 mph 55 % 0.00 in 0.0 W/m2 CLR
19:44 30.9 °F 16.6 °F 29.82 in North 12.9 mph 18.4 mph 55 % 0.00 in 0.0 W/m2 CLR
19:49 30.9 °F 16.6 °F 29.82 in WNW 9.5 mph 17.3 mph 55 % 0.00 in 0.0 W/m2 CLR
19:54 30.7 °F 16.4 °F 29.83 in WNW 11.8 mph 15.0 mph 55 % 0.00 in 0.0 W/m2 CLR
19:59 30.6 °F 16.3 °F 29.83 in WNW 9.3 mph 15.0 mph 55 % 0.00 in 0.0 W/m2 CLR
20:04 30.6 °F 16.7 °F 29.83 in West 8.2 mph 13.8 mph 56 % 0.00 in 0.0 W/m2 CLR
20:09 30.5 °F 16.2 °F 29.83 in West 6.1 mph 17.3 mph 55 % 0.00 in 0.0 W/m2 CLR
20:14 30.4 °F 16.6 °F 29.83 in NW 10.6 mph 15.0 mph 56 % 0.00 in 0.0 W/m2 CLR
20:19 30.3 °F 16.5 °F 29.83 in NW 9.2 mph 18.0 mph 56 % 0.00 in 0.0 W/m2 CLR
20:24 30.3 °F 16.5 °F 29.83 in WNW 6.8 mph 15.0 mph 56 % 0.00 in 0.0 W/m2 CLR
20:29 30.1 °F 16.7 °F 29.83 in NW 8.1 mph 12.7 mph 57 % 0.00 in 0.0 W/m2 CLR
20:34 30.0 °F 16.6 °F 29.83 in WNW 8.2 mph 16.1 mph 57 % 0.00 in 0.0 W/m2 CLR
20:39 29.9 °F 16.5 °F 29.84 in NW 9.0 mph 16.1 mph 57 % 0.00 in 0.0 W/m2 CLR
20:44 29.7 °F 16.7 °F 29.84 in NW 9.4 mph 13.8 mph 58 % 0.00 in 0.0 W/m2 CLR
20:49 29.6 °F 16.2 °F 29.84 in West 9.6 mph 16.1 mph 57 % 0.00 in 0.0 W/m2 CLR
20:54 29.7 °F 16.3 °F 29.84 in WNW 4.3 mph 13.8 mph 57 % 0.00 in 0.0 W/m2 CLR
20:59 29.5 °F 16.1 °F 29.84 in West 9.4 mph 12.7 mph 57 % 0.00 in 0.0 W/m2 CLR
21:04 29.5 °F 16.1 °F 29.84 in NW 6.7 mph 10.4 mph 57 % 0.00 in 0.0 W/m2 CLR
21:09 29.4 °F 15.6 °F 29.84 in NW 6.0 mph 10.4 mph 56 % 0.00 in 0.0 W/m2 CLR
21:14 29.3 °F 15.9 °F 29.85 in WNW 5.0 mph 12.7 mph 57 % 0.00 in 0.0 W/m2 CLR
21:19 29.2 °F 15.8 °F 29.85 in NW 7.9 mph 10.4 mph 57 % 0.00 in 0.0 W/m2 CLR
21:24 29.1 °F 15.7 °F 29.85 in WNW 6.1 mph 8.1 mph 57 % 0.00 in 0.0 W/m2 CLR
21:29 29.0 °F 15.7 °F 29.85 in NW 7.6 mph 15.0 mph 57 % 0.00 in 0.0 W/m2 CLR
21:34 29.0 °F 15.7 °F 29.85 in WNW 4.3 mph 11.5 mph 57 % 0.00 in 0.0 W/m2 CLR
21:40 28.9 °F 15.6 °F 29.85 in WNW 8.0 mph 15.0 mph 57 % 0.00 in 0.0 W/m2 CLR
21:45 28.9 °F 15.6 °F 29.85 in West 5.5 mph 17.3 mph 57 % 0.00 in 0.0 W/m2 CLR
21:50 28.9 °F 15.6 °F 29.86 in WNW 2.7 mph 3.5 mph 57 % 0.00 in 0.0 W/m2 CLR
21:55 28.7 °F 15.4 °F 29.86 in WNW 3.1 mph 10.4 mph 57 % 0.00 in 0.0 W/m2 CLR
22:00 28.5 °F 15.2 °F 29.86 in WNW 10.8 mph 11.5 mph 57 % 0.00 in 0.0 W/m2 CLR
22:05 28.5 °F 15.2 °F 29.86 in WNW 5.0 mph 13.0 mph 57 % 0.00 in 0.0 W/m2 CLR
22:10 28.3 °F 15.0 °F 29.86 in NW 5.0 mph 9.0 mph 57 % 0.00 in 0.0 W/m2 CLR
22:15 28.2 °F 14.9 °F 29.86 in NW 8.2 mph 13.8 mph 57 % 0.00 in 0.0 W/m2 CLR
22:20 28.1 °F 15.2 °F 29.87 in WNW 6.1 mph 10.4 mph 58 % 0.00 in 0.0 W/m2 CLR
22:25 28.1 °F 15.2 °F 29.87 in NW 4.7 mph 10.4 mph 58 % 0.00 in 0.0 W/m2 CLR
22:30 28.1 °F 14.8 °F 29.87 in West 4.1 mph 12.0 mph 57 % 0.00 in 0.0 W/m2 CLR
22:35 28.2 °F 14.9 °F 29.87 in West 4.8 mph 9.2 mph 57 % 0.00 in 0.0 W/m2 CLR
22:40 28.2 °F 15.3 °F 29.87 in West 3.7 mph 9.2 mph 58 % 0.00 in 0.0 W/m2 CLR
22:45 28.1 °F 15.2 °F 29.88 in WNW 4.7 mph 8.1 mph 58 % 0.00 in 0.0 W/m2 CLR
22:50 28.0 °F 15.1 °F 29.88 in WNW 4.4 mph 11.5 mph 58 % 0.00 in 0.0 W/m2 CLR
22:55 28.0 °F 15.1 °F 29.88 in NW 8.1 mph 11.5 mph 58 % 0.00 in 0.0 W/m2 CLR
23:00 28.0 °F 15.5 °F 29.88 in WNW 9.0 mph 12.7 mph 59 % 0.00 in 0.0 W/m2 CLR
23:05 27.9 °F 15.4 °F 29.88 in WNW 7.5 mph 11.5 mph 59 % 0.00 in 0.0 W/m2 CLR
23:10 27.7 °F 15.2 °F 29.88 in West 6.1 mph 10.0 mph 59 % 0.00 in 0.0 W/m2 CLR
23:15 27.7 °F 15.6 °F 29.88 in WNW 7.7 mph 12.7 mph 60 % 0.00 in 0.0 W/m2 CLR
23:20 27.6 °F 15.5 °F 29.88 in NW 7.9 mph 11.5 mph 60 % 0.00 in 0.0 W/m2 CLR
23:25 27.7 °F 15.6 °F 29.88 in WNW 7.7 mph 11.5 mph 60 % 0.00 in 0.0 W/m2 CLR
23:30 27.6 °F 15.9 °F 29.88 in WNW 6.8 mph 11.0 mph 61 % 0.00 in 0.0 W/m2 CLR
23:35 27.6 °F 15.9 °F 29.88 in NW 5.2 mph 11.5 mph 61 % 0.00 in 0.0 W/m2 CLR
23:40 27.5 °F 15.8 °F 29.88 in WNW 4.1 mph 11.0 mph 61 % 0.00 in 0.0 W/m2 CLR
23:45 27.5 °F 15.8 °F 29.88 in WNW 9.8 mph 15.0 mph 61 % 0.00 in 0.0 W/m2 CLR
23:50 27.5 °F 15.8 °F 29.88 in West 10.3 mph 13.0 mph 61 % 0.00 in 0.0 W/m2 CLR
23:55 27.5 °F 15.8 °F 29.88 in WNW 8.6 mph 12.7 mph 61 % 0.00 in 0.0 W/m2 CLR
Air Products Campus Weather
Compliments of Weather Underground - 3.5 mb